sensor_id;sensor_type;location;lat;lon;timestamp;P1;durP1;ratioP1;P2;durP2;ratioP2
4375;SDS011;2202;50.866;12.750;2023-03-01T00:00:01;35.50;;;20.97;;
4375;SDS011;2202;50.866;12.750;2023-03-01T00:02:29;33.00;;;21.20;;
4375;SDS011;2202;50.866;12.750;2023-03-01T00:04:56;39.60;;;21.20;;
4375;SDS011;2202;50.866;12.750;2023-03-01T00:07:23;35.93;;;23.23;;
4375;SDS011;2202;50.866;12.750;2023-03-01T00:09:50;33.13;;;20.73;;
4375;SDS011;2202;50.866;12.750;2023-03-01T00:12:18;39.13;;;23.00;;
4375;SDS011;2202;50.866;12.750;2023-03-01T00:14:45;33.00;;;21.33;;
4375;SDS011;2202;50.866;12.750;2023-03-01T00:17:12;35.07;;;21.63;;
4375;SDS011;2202;50.866;12.750;2023-03-01T00:19:39;28.80;;;19.47;;
4375;SDS011;2202;50.866;12.750;2023-03-01T00:22:06;37.50;;;20.67;;
4375;SDS011;2202;50.866;12.750;2023-03-01T00:24:32;40.20;;;20.80;;
4375;SDS011;2202;50.866;12.750;2023-03-01T00:26:59;29.53;;;18.70;;
4375;SDS011;2202;50.866;12.750;2023-03-01T00:29:28;24.67;;;17.13;;
4375;SDS011;2202;50.866;12.750;2023-03-01T00:31:55;28.17;;;18.57;;
4375;SDS011;2202;50.866;12.750;2023-03-01T00:34:21;28.70;;;19.10;;
4375;SDS011;2202;50.866;12.750;2023-03-01T00:36:48;32.87;;;19.33;;
4375;SDS011;2202;50.866;12.750;2023-03-01T00:39:15;30.13;;;19.63;;
4375;SDS011;2202;50.866;12.750;2023-03-01T00:41:42;29.53;;;20.20;;
4375;SDS011;2202;50.866;12.750;2023-03-01T00:44:09;28.23;;;19.20;;
4375;SDS011;2202;50.866;12.750;2023-03-01T00:46:38;26.43;;;18.13;;
4375;SDS011;2202;50.866;12.750;2023-03-01T00:49:05;31.80;;;19.80;;
4375;SDS011;2202;50.866;12.750;2023-03-01T00:51:32;31.20;;;20.20;;
4375;SDS011;2202;50.866;12.750;2023-03-01T00:53:59;27.63;;;18.77;;
4375;SDS011;2202;50.866;12.750;2023-03-01T00:56:28;34.53;;;20.77;;
4375;SDS011;2202;50.866;12.750;2023-03-01T00:58:55;34.50;;;18.87;;
4375;SDS011;2202;50.866;12.750;2023-03-01T01:01:23;30.90;;;18.43;;
4375;SDS011;2202;50.866;12.750;2023-03-01T01:03:57;30.97;;;18.77;;
4375;SDS011;2202;50.866;12.750;2023-03-01T01:06:27;32.07;;;18.97;;
4375;SDS011;2202;50.866;12.750;2023-03-01T01:08:55;36.67;;;20.60;;
4375;SDS011;2202;50.866;12.750;2023-03-01T01:11:23;34.37;;;19.97;;
4375;SDS011;2202;50.866;12.750;2023-03-01T01:13:52;32.57;;;20.50;;
4375;SDS011;2202;50.866;12.750;2023-03-01T01:16:20;36.10;;;20.87;;
4375;SDS011;2202;50.866;12.750;2023-03-01T01:18:49;28.17;;;18.83;;
4375;SDS011;2202;50.866;12.750;2023-03-01T01:21:18;41.07;;;20.20;;
4375;SDS011;2202;50.866;12.750;2023-03-01T01:23:47;35.20;;;22.00;;
4375;SDS011;2202;50.866;12.750;2023-03-01T01:26:16;28.90;;;20.10;;
4375;SDS011;2202;50.866;12.750;2023-03-01T01:28:44;29.60;;;18.97;;
4375;SDS011;2202;50.866;12.750;2023-03-01T01:31:11;37.93;;;21.97;;
4375;SDS011;2202;50.866;12.750;2023-03-01T01:33:38;35.53;;;22.23;;
4375;SDS011;2202;50.866;12.750;2023-03-01T01:36:05;35.07;;;20.53;;
4375;SDS011;2202;50.866;12.750;2023-03-01T01:38:35;32.10;;;19.93;;
4375;SDS011;2202;50.866;12.750;2023-03-01T01:41:04;32.77;;;20.20;;
4375;SDS011;2202;50.866;12.750;2023-03-01T01:43:33;34.27;;;19.43;;
4375;SDS011;2202;50.866;12.750;2023-03-01T01:46:02;29.40;;;18.93;;
4375;SDS011;2202;50.866;12.750;2023-03-01T01:48:32;32.70;;;19.40;;
4375;SDS011;2202;50.866;12.750;2023-03-01T01:51:06;36.47;;;21.70;;
4375;SDS011;2202;50.866;12.750;2023-03-01T01:53:39;35.90;;;20.60;;
4375;SDS011;2202;50.866;12.750;2023-03-01T01:56:09;37.80;;;20.43;;
4375;SDS011;2202;50.866;12.750;2023-03-01T01:58:38;32.03;;;19.57;;
4375;SDS011;2202;50.866;12.750;2023-03-01T02:01:05;29.97;;;21.83;;
4375;SDS011;2202;50.866;12.750;2023-03-01T02:03:33;32.53;;;20.43;;
4375;SDS011;2202;50.866;12.750;2023-03-01T02:06:06;31.40;;;20.13;;
4375;SDS011;2202;50.866;12.750;2023-03-01T02:08:41;31.33;;;18.70;;
4375;SDS011;2202;50.866;12.750;2023-03-01T02:11:09;29.23;;;18.70;;
4375;SDS011;2202;50.866;12.750;2023-03-01T02:13:39;31.63;;;19.27;;
4375;SDS011;2202;50.866;12.750;2023-03-01T02:16:08;35.67;;;20.40;;
4375;SDS011;2202;50.866;12.750;2023-03-01T02:18:36;28.63;;;18.27;;
4375;SDS011;2202;50.866;12.750;2023-03-01T02:21:07;24.10;;;17.53;;
4375;SDS011;2202;50.866;12.750;2023-03-01T02:23:42;43.20;;;20.53;;
4375;SDS011;2202;50.866;12.750;2023-03-01T02:26:13;34.60;;;21.17;;
4375;SDS011;2202;50.866;12.750;2023-03-01T02:28:46;31.20;;;20.27;;
4375;SDS011;2202;50.866;12.750;2023-03-01T02:31:14;33.50;;;21.10;;
4375;SDS011;2202;50.866;12.750;2023-03-01T02:34:02;35.17;;;21.30;;
4375;SDS011;2202;50.866;12.750;2023-03-01T02:36:30;27.23;;;17.80;;
4375;SDS011;2202;50.866;12.750;2023-03-01T02:39:02;34.37;;;18.90;;
4375;SDS011;2202;50.866;12.750;2023-03-01T02:41:31;32.97;;;18.30;;
4375;SDS011;2202;50.866;12.750;2023-03-01T02:44:03;32.77;;;19.57;;
4375;SDS011;2202;50.866;12.750;2023-03-01T02:46:30;31.00;;;22.43;;
4375;SDS011;2202;50.866;12.750;2023-03-01T02:48:58;32.43;;;20.37;;
4375;SDS011;2202;50.866;12.750;2023-03-01T02:51:27;35.80;;;20.37;;
4375;SDS011;2202;50.866;12.750;2023-03-01T02:54:07;28.53;;;17.63;;
4375;SDS011;2202;50.866;12.750;2023-03-01T02:56:38;29.30;;;19.83;;
4375;SDS011;2202;50.866;12.750;2023-03-01T02:59:06;32.40;;;18.90;;
4375;SDS011;2202;50.866;12.750;2023-03-01T03:01:35;31.47;;;20.47;;
4375;SDS011;2202;50.866;12.750;2023-03-01T03:04:04;29.90;;;20.50;;
4375;SDS011;2202;50.866;12.750;2023-03-01T03:06:32;28.83;;;19.00;;
4375;SDS011;2202;50.866;12.750;2023-03-01T03:08:59;30.23;;;19.40;;
4375;SDS011;2202;50.866;12.750;2023-03-01T03:11:26;36.50;;;21.20;;
4375;SDS011;2202;50.866;12.750;2023-03-01T03:13:53;30.93;;;19.87;;
4375;SDS011;2202;50.866;12.750;2023-03-01T03:16:22;35.57;;;18.80;;
4375;SDS011;2202;50.866;12.750;2023-03-01T03:18:49;36.30;;;22.20;;
4375;SDS011;2202;50.866;12.750;2023-03-01T03:21:16;30.60;;;20.67;;
4375;SDS011;2202;50.866;12.750;2023-03-01T03:23:43;34.63;;;19.20;;
4375;SDS011;2202;50.866;12.750;2023-03-01T03:26:10;29.50;;;19.10;;
4375;SDS011;2202;50.866;12.750;2023-03-01T03:28:45;31.67;;;20.77;;
4375;SDS011;2202;50.866;12.750;2023-03-01T03:31:12;29.73;;;19.43;;
4375;SDS011;2202;50.866;12.750;2023-03-01T03:33:40;30.10;;;19.30;;
4375;SDS011;2202;50.866;12.750;2023-03-01T03:36:07;28.73;;;19.43;;
4375;SDS011;2202;50.866;12.750;2023-03-01T03:38:38;40.63;;;22.47;;
4375;SDS011;2202;50.866;12.750;2023-03-01T03:41:06;33.83;;;21.30;;
4375;SDS011;2202;50.866;12.750;2023-03-01T03:43:34;31.63;;;20.53;;
4375;SDS011;2202;50.866;12.750;2023-03-01T03:46:03;34.53;;;21.30;;
4375;SDS011;2202;50.866;12.750;2023-03-01T03:48:31;32.97;;;21.30;;
4375;SDS011;2202;50.866;12.750;2023-03-01T03:51:00;30.90;;;20.80;;
4375;SDS011;2202;50.866;12.750;2023-03-01T03:53:30;31.40;;;19.77;;
4375;SDS011;2202;50.866;12.750;2023-03-01T03:55:57;31.30;;;19.80;;
4375;SDS011;2202;50.866;12.750;2023-03-01T03:58:25;35.20;;;20.90;;
4375;SDS011;2202;50.866;12.750;2023-03-01T04:00:52;31.90;;;20.50;;
4375;SDS011;2202;50.866;12.750;2023-03-01T04:03:21;34.60;;;20.43;;
4375;SDS011;2202;50.866;12.750;2023-03-01T04:05:49;37.37;;;22.83;;
4375;SDS011;2202;50.866;12.750;2023-03-01T04:08:18;37.40;;;21.77;;
4375;SDS011;2202;50.866;12.750;2023-03-01T04:10:46;39.57;;;21.20;;
4375;SDS011;2202;50.866;12.750;2023-03-01T04:13:16;32.87;;;20.27;;
4375;SDS011;2202;50.866;12.750;2023-03-01T04:15:45;40.43;;;20.53;;
4375;SDS011;2202;50.866;12.750;2023-03-01T04:18:13;32.90;;;22.33;;
4375;SDS011;2202;50.866;12.750;2023-03-01T04:20:41;32.30;;;20.37;;
4375;SDS011;2202;50.866;12.750;2023-03-01T04:23:10;42.47;;;21.43;;
4375;SDS011;2202;50.866;12.750;2023-03-01T04:25:42;34.20;;;19.00;;
4375;SDS011;2202;50.866;12.750;2023-03-01T04:28:14;35.53;;;22.13;;
4375;SDS011;2202;50.866;12.750;2023-03-01T04:30:42;39.00;;;22.03;;
4375;SDS011;2202;50.866;12.750;2023-03-01T04:33:09;37.17;;;21.13;;
4375;SDS011;2202;50.866;12.750;2023-03-01T04:35:36;40.10;;;21.70;;
4375;SDS011;2202;50.866;12.750;2023-03-01T04:38:05;37.47;;;22.67;;
4375;SDS011;2202;50.866;12.750;2023-03-01T04:40:32;28.43;;;19.60;;
4375;SDS011;2202;50.866;12.750;2023-03-01T04:43:00;35.40;;;21.20;;
4375;SDS011;2202;50.866;12.750;2023-03-01T04:45:27;35.80;;;22.13;;
4375;SDS011;2202;50.866;12.750;2023-03-01T04:47:54;39.97;;;22.10;;
4375;SDS011;2202;50.866;12.750;2023-03-01T04:50:23;34.53;;;23.30;;
4375;SDS011;2202;50.866;12.750;2023-03-01T04:52:50;33.00;;;22.63;;
4375;SDS011;2202;50.866;12.750;2023-03-01T04:55:18;36.90;;;24.30;;
4375;SDS011;2202;50.866;12.750;2023-03-01T04:57:45;36.67;;;23.40;;
4375;SDS011;2202;50.866;12.750;2023-03-01T05:00:15;36.57;;;23.80;;
4375;SDS011;2202;50.866;12.750;2023-03-01T05:02:49;34.70;;;23.47;;
4375;SDS011;2202;50.866;12.750;2023-03-01T05:05:18;37.90;;;21.93;;
4375;SDS011;2202;50.866;12.750;2023-03-01T05:07:50;33.87;;;22.77;;
4375;SDS011;2202;50.866;12.750;2023-03-01T05:10:21;39.13;;;22.90;;
4375;SDS011;2202;50.866;12.750;2023-03-01T05:12:48;42.43;;;21.50;;
4375;SDS011;2202;50.866;12.750;2023-03-01T05:15:18;37.87;;;22.30;;
4375;SDS011;2202;50.866;12.750;2023-03-01T05:17:46;37.07;;;23.17;;
4375;SDS011;2202;50.866;12.750;2023-03-01T05:20:13;32.40;;;22.07;;
4375;SDS011;2202;50.866;12.750;2023-03-01T05:22:40;36.07;;;24.30;;
4375;SDS011;2202;50.866;12.750;2023-03-01T05:25:07;37.97;;;25.53;;
4375;SDS011;2202;50.866;12.750;2023-03-01T05:27:35;40.87;;;24.83;;
4375;SDS011;2202;50.866;12.750;2023-03-01T05:30:02;43.47;;;23.83;;
4375;SDS011;2202;50.866;12.750;2023-03-01T05:32:40;33.97;;;21.90;;
4375;SDS011;2202;50.866;12.750;2023-03-01T05:35:09;44.07;;;23.93;;
4375;SDS011;2202;50.866;12.750;2023-03-01T05:37:38;35.80;;;23.53;;
4375;SDS011;2202;50.866;12.750;2023-03-01T05:40:09;43.80;;;23.20;;
4375;SDS011;2202;50.866;12.750;2023-03-01T05:42:42;43.33;;;24.30;;
4375;SDS011;2202;50.866;12.750;2023-03-01T05:45:09;37.80;;;23.30;;
4375;SDS011;2202;50.866;12.750;2023-03-01T05:47:37;43.07;;;24.43;;
4375;SDS011;2202;50.866;12.750;2023-03-01T05:50:10;38.97;;;22.07;;
4375;SDS011;2202;50.866;12.750;2023-03-01T05:52:38;33.10;;;22.57;;
4375;SDS011;2202;50.866;12.750;2023-03-01T05:55:05;38.17;;;24.10;;
4375;SDS011;2202;50.866;12.750;2023-03-01T05:57:33;37.73;;;22.10;;
4375;SDS011;2202;50.866;12.750;2023-03-01T06:00:00;39.03;;;21.60;;
4375;SDS011;2202;50.866;12.750;2023-03-01T06:02:27;39.60;;;24.60;;
4375;SDS011;2202;50.866;12.750;2023-03-01T06:04:55;39.27;;;22.50;;
4375;SDS011;2202;50.866;12.750;2023-03-01T06:07:23;39.23;;;23.70;;
4375;SDS011;2202;50.866;12.750;2023-03-01T06:09:50;38.47;;;24.23;;
4375;SDS011;2202;50.866;12.750;2023-03-01T06:12:17;39.10;;;26.30;;
4375;SDS011;2202;50.866;12.750;2023-03-01T06:14:44;49.67;;;26.60;;
4375;SDS011;2202;50.866;12.750;2023-03-01T06:17:12;40.57;;;27.80;;
4375;SDS011;2202;50.866;12.750;2023-03-01T06:19:39;42.03;;;27.00;;
4375;SDS011;2202;50.866;12.750;2023-03-01T06:22:07;40.33;;;27.83;;
4375;SDS011;2202;50.866;12.750;2023-03-01T06:24:34;50.33;;;28.40;;
4375;SDS011;2202;50.866;12.750;2023-03-01T06:27:01;39.87;;;25.97;;
4375;SDS011;2202;50.866;12.750;2023-03-01T06:29:28;44.00;;;26.60;;
4375;SDS011;2202;50.866;12.750;2023-03-01T06:31:54;44.33;;;27.10;;
4375;SDS011;2202;50.866;12.750;2023-03-01T06:34:21;46.33;;;26.63;;
4375;SDS011;2202;50.866;12.750;2023-03-01T06:36:48;38.90;;;25.17;;
4375;SDS011;2202;50.866;12.750;2023-03-01T06:39:16;41.13;;;28.10;;
4375;SDS011;2202;50.866;12.750;2023-03-01T06:41:43;55.07;;;33.43;;
4375;SDS011;2202;50.866;12.750;2023-03-01T06:44:10;59.50;;;35.97;;
4375;SDS011;2202;50.866;12.750;2023-03-01T06:46:38;57.13;;;35.07;;
4375;SDS011;2202;50.866;12.750;2023-03-01T06:49:05;64.97;;;35.90;;
4375;SDS011;2202;50.866;12.750;2023-03-01T06:51:34;57.43;;;34.00;;
4375;SDS011;2202;50.866;12.750;2023-03-01T06:54:02;52.57;;;31.77;;
4375;SDS011;2202;50.866;12.750;2023-03-01T06:56:31;54.43;;;29.63;;
4375;SDS011;2202;50.866;12.750;2023-03-01T06:58:58;57.80;;;30.90;;
4375;SDS011;2202;50.866;12.750;2023-03-01T07:01:26;48.93;;;28.47;;
4375;SDS011;2202;50.866;12.750;2023-03-01T07:03:53;51.17;;;27.87;;
4375;SDS011;2202;50.866;12.750;2023-03-01T07:06:20;39.20;;;27.67;;
4375;SDS011;2202;50.866;12.750;2023-03-01T07:08:47;43.93;;;27.70;;
4375;SDS011;2202;50.866;12.750;2023-03-01T07:11:14;41.70;;;26.57;;
4375;SDS011;2202;50.866;12.750;2023-03-01T07:13:42;38.50;;;26.10;;
4375;SDS011;2202;50.866;12.750;2023-03-01T07:16:09;38.17;;;26.30;;
4375;SDS011;2202;50.866;12.750;2023-03-01T07:18:36;36.53;;;25.33;;
4375;SDS011;2202;50.866;12.750;2023-03-01T07:21:06;41.17;;;25.60;;
4375;SDS011;2202;50.866;12.750;2023-03-01T07:23:34;37.87;;;26.43;;
4375;SDS011;2202;50.866;12.750;2023-03-01T07:26:01;40.77;;;23.47;;
4375;SDS011;2202;50.866;12.750;2023-03-01T07:28:28;34.40;;;23.03;;
4375;SDS011;2202;50.866;12.750;2023-03-01T07:30:58;29.43;;;22.10;;
4375;SDS011;2202;50.866;12.750;2023-03-01T07:33:27;30.93;;;21.80;;
4375;SDS011;2202;50.866;12.750;2023-03-01T07:35:57;30.30;;;21.50;;
4375;SDS011;2202;50.866;12.750;2023-03-01T07:38:24;33.83;;;22.17;;
4375;SDS011;2202;50.866;12.750;2023-03-01T07:40:52;33.13;;;22.30;;
4375;SDS011;2202;50.866;12.750;2023-03-01T07:43:19;28.97;;;21.60;;
4375;SDS011;2202;50.866;12.750;2023-03-01T07:45:46;34.40;;;23.73;;
4375;SDS011;2202;50.866;12.750;2023-03-01T07:48:14;35.43;;;22.97;;
4375;SDS011;2202;50.866;12.750;2023-03-01T07:50:41;30.83;;;21.63;;
4375;SDS011;2202;50.866;12.750;2023-03-01T07:53:08;31.13;;;22.60;;
4375;SDS011;2202;50.866;12.750;2023-03-01T07:55:35;35.07;;;23.57;;
4375;SDS011;2202;50.866;12.750;2023-03-01T07:58:02;40.90;;;27.20;;
4375;SDS011;2202;50.866;12.750;2023-03-01T08:00:29;37.10;;;23.97;;
4375;SDS011;2202;50.866;12.750;2023-03-01T08:02:58;36.43;;;23.33;;
4375;SDS011;2202;50.866;12.750;2023-03-01T08:05:28;35.20;;;25.13;;
4375;SDS011;2202;50.866;12.750;2023-03-01T08:07:55;39.30;;;25.47;;
4375;SDS011;2202;50.866;12.750;2023-03-01T08:10:22;36.00;;;24.10;;
4375;SDS011;2202;50.866;12.750;2023-03-01T08:12:50;38.23;;;23.67;;
4375;SDS011;2202;50.866;12.750;2023-03-01T08:15:17;39.63;;;24.60;;
4375;SDS011;2202;50.866;12.750;2023-03-01T08:17:44;32.70;;;23.23;;
4375;SDS011;2202;50.866;12.750;2023-03-01T08:20:11;40.30;;;26.37;;
4375;SDS011;2202;50.866;12.750;2023-03-01T08:22:40;67.13;;;39.90;;
4375;SDS011;2202;50.866;12.750;2023-03-01T08:25:07;59.40;;;33.67;;
4375;SDS011;2202;50.866;12.750;2023-03-01T08:27:34;43.20;;;28.07;;
4375;SDS011;2202;50.866;12.750;2023-03-01T08:30:01;49.97;;;31.80;;
4375;SDS011;2202;50.866;12.750;2023-03-01T08:32:28;36.90;;;24.80;;
4375;SDS011;2202;50.866;12.750;2023-03-01T08:34:55;34.40;;;24.33;;
4375;SDS011;2202;50.866;12.750;2023-03-01T08:37:22;42.17;;;26.47;;
4375;SDS011;2202;50.866;12.750;2023-03-01T08:39:50;37.07;;;25.40;;
4375;SDS011;2202;50.866;12.750;2023-03-01T08:42:17;41.03;;;24.20;;
4375;SDS011;2202;50.866;12.750;2023-03-01T08:44:44;41.80;;;27.43;;
4375;SDS011;2202;50.866;12.750;2023-03-01T08:47:10;36.20;;;25.07;;
4375;SDS011;2202;50.866;12.750;2023-03-01T08:49:37;42.53;;;24.80;;
4375;SDS011;2202;50.866;12.750;2023-03-01T08:52:04;41.17;;;24.53;;
4375;SDS011;2202;50.866;12.750;2023-03-01T08:54:31;38.23;;;25.37;;
4375;SDS011;2202;50.866;12.750;2023-03-01T08:56:59;39.77;;;26.00;;
4375;SDS011;2202;50.866;12.750;2023-03-01T08:59:27;35.00;;;22.93;;
4375;SDS011;2202;50.866;12.750;2023-03-01T09:01:55;42.00;;;26.20;;
4375;SDS011;2202;50.866;12.750;2023-03-01T09:04:22;34.53;;;22.80;;
4375;SDS011;2202;50.866;12.750;2023-03-01T09:06:49;37.57;;;24.10;;
4375;SDS011;2202;50.866;12.750;2023-03-01T09:09:16;39.23;;;23.87;;
4375;SDS011;2202;50.866;12.750;2023-03-01T09:11:43;33.03;;;24.03;;
4375;SDS011;2202;50.866;12.750;2023-03-01T09:14:13;36.03;;;23.30;;
4375;SDS011;2202;50.866;12.750;2023-03-01T09:16:40;31.43;;;24.27;;
4375;SDS011;2202;50.866;12.750;2023-03-01T09:19:07;41.20;;;24.63;;
4375;SDS011;2202;50.866;12.750;2023-03-01T09:21:34;40.57;;;24.77;;
4375;SDS011;2202;50.866;12.750;2023-03-01T09:24:01;37.37;;;23.27;;
4375;SDS011;2202;50.866;12.750;2023-03-01T09:26:29;31.93;;;22.90;;
4375;SDS011;2202;50.866;12.750;2023-03-01T09:28:56;34.20;;;23.40;;
4375;SDS011;2202;50.866;12.750;2023-03-01T09:31:24;30.60;;;23.40;;
4375;SDS011;2202;50.866;12.750;2023-03-01T09:33:52;36.50;;;24.73;;
4375;SDS011;2202;50.866;12.750;2023-03-01T09:36:21;36.60;;;24.60;;
4375;SDS011;2202;50.866;12.750;2023-03-01T09:38:50;34.70;;;24.90;;
4375;SDS011;2202;50.866;12.750;2023-03-01T09:41:26;36.10;;;25.20;;
4375;SDS011;2202;50.866;12.750;2023-03-01T09:44:04;37.23;;;24.17;;
4375;SDS011;2202;50.866;12.750;2023-03-01T09:46:40;35.90;;;22.63;;
4375;SDS011;2202;50.866;12.750;2023-03-01T09:49:10;34.30;;;23.90;;
4375;SDS011;2202;50.866;12.750;2023-03-01T09:51:41;41.20;;;24.70;;
4375;SDS011;2202;50.866;12.750;2023-03-01T09:54:12;33.47;;;23.43;;
4375;SDS011;2202;50.866;12.750;2023-03-01T09:56:39;35.00;;;24.80;;
4375;SDS011;2202;50.866;12.750;2023-03-01T09:59:14;40.43;;;25.53;;
4375;SDS011;2202;50.866;12.750;2023-03-01T10:01:51;39.63;;;24.40;;
4375;SDS011;2202;50.866;12.750;2023-03-01T10:04:29;32.87;;;24.07;;
4375;SDS011;2202;50.866;12.750;2023-03-01T10:07:12;40.27;;;24.87;;
4375;SDS011;2202;50.866;12.750;2023-03-01T10:09:51;34.90;;;23.77;;
4375;SDS011;2202;50.866;12.750;2023-03-01T10:12:19;39.23;;;24.70;;
4375;SDS011;2202;50.866;12.750;2023-03-01T10:14:51;41.13;;;26.13;;
4375;SDS011;2202;50.866;12.750;2023-03-01T10:17:26;41.03;;;24.27;;
4375;SDS011;2202;50.866;12.750;2023-03-01T10:19:59;33.67;;;23.20;;
4375;SDS011;2202;50.866;12.750;2023-03-01T10:22:46;28.97;;;22.10;;
4375;SDS011;2202;50.866;12.750;2023-03-01T10:25:17;34.57;;;24.07;;
4375;SDS011;2202;50.866;12.750;2023-03-01T10:27:54;33.43;;;22.20;;
4375;SDS011;2202;50.866;12.750;2023-03-01T10:30:29;33.70;;;22.97;;
4375;SDS011;2202;50.866;12.750;2023-03-01T10:33:04;36.60;;;23.43;;
4375;SDS011;2202;50.866;12.750;2023-03-01T10:35:42;35.40;;;23.90;;
4375;SDS011;2202;50.866;12.750;2023-03-01T10:38:09;33.90;;;22.50;;
4375;SDS011;2202;50.866;12.750;2023-03-01T10:40:49;39.03;;;23.47;;
4375;SDS011;2202;50.866;12.750;2023-03-01T10:43:17;31.70;;;22.97;;
4375;SDS011;2202;50.866;12.750;2023-03-01T10:45:44;36.07;;;20.80;;
4375;SDS011;2202;50.866;12.750;2023-03-01T10:48:13;34.17;;;23.67;;
4375;SDS011;2202;50.866;12.750;2023-03-01T10:50:42;35.60;;;22.80;;
4375;SDS011;2202;50.866;12.750;2023-03-01T10:53:20;34.83;;;21.27;;
4375;SDS011;2202;50.866;12.750;2023-03-01T10:55:56;33.10;;;21.23;;
4375;SDS011;2202;50.866;12.750;2023-03-01T10:58:29;37.70;;;23.20;;
4375;SDS011;2202;50.866;12.750;2023-03-01T11:00:58;24.03;;;19.37;;
4375;SDS011;2202;50.866;12.750;2023-03-01T11:03:28;32.67;;;22.27;;
4375;SDS011;2202;50.866;12.750;2023-03-01T11:05:58;37.13;;;21.33;;
4375;SDS011;2202;50.866;12.750;2023-03-01T11:08:32;32.37;;;23.47;;
4375;SDS011;2202;50.866;12.750;2023-03-01T11:11:05;38.37;;;24.67;;
4375;SDS011;2202;50.866;12.750;2023-03-01T11:13:46;33.97;;;24.40;;
4375;SDS011;2202;50.866;12.750;2023-03-01T11:16:22;38.53;;;25.33;;
4375;SDS011;2202;50.866;12.750;2023-03-01T11:19:13;36.17;;;22.87;;
4375;SDS011;2202;50.866;12.750;2023-03-01T11:21:43;37.33;;;24.40;;
4375;SDS011;2202;50.866;12.750;2023-03-01T11:24:16;37.57;;;24.30;;
4375;SDS011;2202;50.866;12.750;2023-03-01T11:26:46;41.77;;;26.70;;
4375;SDS011;2202;50.866;12.750;2023-03-01T11:29:17;34.97;;;23.40;;
4375;SDS011;2202;50.866;12.750;2023-03-01T11:31:54;33.70;;;23.60;;
4375;SDS011;2202;50.866;12.750;2023-03-01T11:34:31;36.43;;;25.33;;
4375;SDS011;2202;50.866;12.750;2023-03-01T11:37:07;38.67;;;23.53;;
4375;SDS011;2202;50.866;12.750;2023-03-01T11:39:40;34.47;;;22.87;;
4375;SDS011;2202;50.866;12.750;2023-03-01T11:42:14;33.13;;;23.67;;
4375;SDS011;2202;50.866;12.750;2023-03-01T11:44:44;31.87;;;22.10;;
4375;SDS011;2202;50.866;12.750;2023-03-01T11:47:20;31.37;;;22.70;;
4375;SDS011;2202;50.866;12.750;2023-03-01T11:50:03;35.90;;;22.53;;
4375;SDS011;2202;50.866;12.750;2023-03-01T11:52:44;36.43;;;22.90;;
4375;SDS011;2202;50.866;12.750;2023-03-01T11:55:25;36.40;;;23.30;;
4375;SDS011;2202;50.866;12.750;2023-03-01T11:58:09;31.47;;;22.30;;
4375;SDS011;2202;50.866;12.750;2023-03-01T12:00:53;35.00;;;22.63;;
4375;SDS011;2202;50.866;12.750;2023-03-01T12:03:49;36.33;;;23.83;;
4375;SDS011;2202;50.866;12.750;2023-03-01T12:06:39;34.77;;;22.50;;
4375;SDS011;2202;50.866;12.750;2023-03-01T12:09:19;34.03;;;22.90;;
4375;SDS011;2202;50.866;12.750;2023-03-01T12:12:01;34.07;;;23.00;;
4375;SDS011;2202;50.866;12.750;2023-03-01T12:15:04;34.50;;;22.70;;
4375;SDS011;2202;50.866;12.750;2023-03-01T12:17:53;29.13;;;21.00;;
4375;SDS011;2202;50.866;12.750;2023-03-01T12:20:46;34.17;;;22.10;;
4375;SDS011;2202;50.866;12.750;2023-03-01T12:23:31;27.60;;;20.80;;
4375;SDS011;2202;50.866;12.750;2023-03-01T12:26:16;34.77;;;24.43;;
4375;SDS011;2202;50.866;12.750;2023-03-01T12:28:56;40.67;;;27.50;;
4375;SDS011;2202;50.866;12.750;2023-03-01T12:31:41;38.80;;;27.17;;
4375;SDS011;2202;50.866;12.750;2023-03-01T12:34:22;44.07;;;27.37;;
4375;SDS011;2202;50.866;12.750;2023-03-01T12:37:11;45.27;;;29.97;;
4375;SDS011;2202;50.866;12.750;2023-03-01T12:39:51;38.77;;;26.60;;
4375;SDS011;2202;50.866;12.750;2023-03-01T12:42:30;40.83;;;26.20;;
4375;SDS011;2202;50.866;12.750;2023-03-01T12:45:24;44.57;;;29.33;;
4375;SDS011;2202;50.866;12.750;2023-03-01T12:48:03;41.70;;;27.43;;
4375;SDS011;2202;50.866;12.750;2023-03-01T12:50:40;40.97;;;27.17;;
4375;SDS011;2202;50.866;12.750;2023-03-01T12:53:15;40.70;;;27.20;;
4375;SDS011;2202;50.866;12.750;2023-03-01T12:55:50;38.80;;;26.17;;
4375;SDS011;2202;50.866;12.750;2023-03-01T12:58:23;33.47;;;23.83;;
4375;SDS011;2202;50.866;12.750;2023-03-01T13:01:00;39.07;;;24.13;;
4375;SDS011;2202;50.866;12.750;2023-03-01T13:03:44;39.50;;;24.33;;
4375;SDS011;2202;50.866;12.750;2023-03-01T13:06:25;39.23;;;23.80;;
4375;SDS011;2202;50.866;12.750;2023-03-01T13:09:04;38.30;;;25.43;;
4375;SDS011;2202;50.866;12.750;2023-03-01T13:11:36;41.73;;;24.93;;
4375;SDS011;2202;50.866;12.750;2023-03-01T13:17:01;38.43;;;25.60;;
4375;SDS011;2202;50.866;12.750;2023-03-01T13:19:28;42.47;;;25.63;;
4375;SDS011;2202;50.866;12.750;2023-03-01T13:21:57;43.40;;;29.70;;
4375;SDS011;2202;50.866;12.750;2023-03-01T13:24:25;44.60;;;26.47;;
4375;SDS011;2202;50.866;12.750;2023-03-01T13:27:18;43.80;;;27.70;;
4375;SDS011;2202;50.866;12.750;2023-03-01T13:29:54;37.90;;;26.10;;
4375;SDS011;2202;50.866;12.750;2023-03-01T13:32:24;35.93;;;26.20;;
4375;SDS011;2202;50.866;12.750;2023-03-01T13:34:57;38.73;;;26.90;;
4375;SDS011;2202;50.866;12.750;2023-03-01T13:37:29;34.10;;;23.93;;
4375;SDS011;2202;50.866;12.750;2023-03-01T13:39:59;42.23;;;27.63;;
4375;SDS011;2202;50.866;12.750;2023-03-01T13:42:41;46.00;;;32.20;;
4375;SDS011;2202;50.866;12.750;2023-03-01T13:45:18;39.50;;;25.67;;
4375;SDS011;2202;50.866;12.750;2023-03-01T13:47:49;37.57;;;25.77;;
4375;SDS011;2202;50.866;12.750;2023-03-01T13:50:23;39.13;;;26.10;;
4375;SDS011;2202;50.866;12.750;2023-03-01T13:52:52;38.67;;;25.20;;
4375;SDS011;2202;50.866;12.750;2023-03-01T13:55:23;32.33;;;22.90;;
4375;SDS011;2202;50.866;12.750;2023-03-01T13:57:55;38.37;;;25.23;;
4375;SDS011;2202;50.866;12.750;2023-03-01T14:00:34;37.10;;;25.00;;
4375;SDS011;2202;50.866;12.750;2023-03-01T14:03:03;36.67;;;25.23;;
4375;SDS011;2202;50.866;12.750;2023-03-01T14:05:32;38.03;;;24.87;;
4375;SDS011;2202;50.866;12.750;2023-03-01T14:08:01;40.87;;;25.53;;
4375;SDS011;2202;50.866;12.750;2023-03-01T14:10:30;36.43;;;25.63;;
4375;SDS011;2202;50.866;12.750;2023-03-01T14:13:10;33.93;;;24.17;;
4375;SDS011;2202;50.866;12.750;2023-03-01T14:15:48;39.20;;;25.47;;
4375;SDS011;2202;50.866;12.750;2023-03-01T14:18:23;37.97;;;23.67;;
4375;SDS011;2202;50.866;12.750;2023-03-01T14:20:54;33.40;;;23.20;;
4375;SDS011;2202;50.866;12.750;2023-03-01T14:23:21;32.20;;;22.47;;
4375;SDS011;2202;50.866;12.750;2023-03-01T14:25:49;34.60;;;22.50;;
4375;SDS011;2202;50.866;12.750;2023-03-01T14:28:20;30.60;;;20.87;;
4375;SDS011;2202;50.866;12.750;2023-03-01T14:30:49;35.57;;;24.00;;
4375;SDS011;2202;50.866;12.750;2023-03-01T14:33:19;29.30;;;22.70;;
4375;SDS011;2202;50.866;12.750;2023-03-01T14:35:55;33.60;;;21.90;;
4375;SDS011;2202;50.866;12.750;2023-03-01T14:38:29;35.33;;;22.43;;
4375;SDS011;2202;50.866;12.750;2023-03-01T14:40:59;35.80;;;24.13;;
4375;SDS011;2202;50.866;12.750;2023-03-01T14:43:30;35.03;;;24.53;;
4375;SDS011;2202;50.866;12.750;2023-03-01T14:45:57;49.90;;;31.87;;
4375;SDS011;2202;50.866;12.750;2023-03-01T14:48:24;38.13;;;24.20;;
4375;SDS011;2202;50.866;12.750;2023-03-01T14:50:54;32.93;;;23.37;;
4375;SDS011;2202;50.866;12.750;2023-03-01T14:53:22;33.83;;;22.50;;
4375;SDS011;2202;50.866;12.750;2023-03-01T14:55:51;34.90;;;22.47;;